Time;durP1;ratioP1;P1;durP2;ratioP2;P2;SDS_P1;SDS_P2;PMS_P1;PMS_P2;Temp;Humidity;BMP_temperature;BMP_pressure;BME280_temperature;BME280_humidity;BME280_pressure;Samples;Min_cycle;Max_cycle;Signal;HPM_P1;HPM_P2
2023/06/02 00:00:46;;;;;;;2.07;1.97;;;21.50;43.80;;;;;;4922797;28;20237;-70
2023/06/02 00:03:12;;;;;;;2.03;1.93;;;21.50;43.80;;;;;;4925610;28;20993;-70
2023/06/02 00:05:40;;;;;;;2.60;1.70;;;21.50;43.90;;;;;;4915187;28;20296;-70
2023/06/02 00:08:06;;;;;;;1.90;1.80;;;21.50;43.80;;;;;;4922070;28;20677;-70
2023/06/02 00:10:32;;;;;;;2.10;2.00;;;21.50;43.70;;;;;;4917346;28;20463;-70
2023/06/02 00:12:57;;;;;;;1.80;1.70;;;21.50;43.70;;;;;;4922365;28;20229;-70
2023/06/02 00:15:23;;;;;;;2.27;2.17;;;21.50;43.80;;;;;;4916642;28;20284;-70
2023/06/02 00:17:48;;;;;;;2.60;2.40;;;21.50;43.60;;;;;;4922914;28;20225;-70
2023/06/02 00:20:17;;;;;;;2.57;1.87;;;21.50;43.50;;;;;;4922711;28;20225;-70
2023/06/02 00:22:43;;;;;;;2.10;2.00;;;21.50;43.50;;;;;;4921919;28;20237;-70
2023/06/02 00:25:08;;;;;;;2.00;1.90;;;21.50;43.40;;;;;;4925311;28;20962;-70
2023/06/02 00:27:34;;;;;;;2.00;1.90;;;21.50;43.50;;;;;;4924299;28;21758;-70
2023/06/02 00:30:00;;;;;;;1.97;1.87;;;21.50;43.50;;;;;;4915743;28;20316;-70
2023/06/02 00:32:25;;;;;;;2.00;1.90;;;21.50;43.40;;;;;;4933200;28;20694;-70
2023/06/02 00:34:51;;;;;;;2.00;1.90;;;21.50;43.40;;;;;;4920450;28;20280;-70
2023/06/02 00:37:16;;;;;;;1.57;1.47;;;21.50;43.40;;;;;;4924474;28;22214;-70
2023/06/02 00:39:42;;;;;;;1.80;1.70;;;21.50;43.30;;;;;;4923218;28;25800;-70
2023/06/02 00:42:09;;;;;;;1.90;1.80;;;21.50;43.20;;;;;;4921003;28;20239;-72
2023/06/02 00:44:35;;;;;;;1.93;1.73;;;21.50;43.30;;;;;;4925829;28;20225;-71
2023/06/02 00:47:00;;;;;;;2.07;1.97;;;21.50;43.00;;;;;;4929377;28;20914;-70
2023/06/02 00:49:26;;;;;;;2.00;1.90;;;21.50;42.70;;;;;;4921991;28;20249;-70
2023/06/02 00:51:53;;;;;;;1.70;1.60;;;21.50;42.70;;;;;;4925978;28;20336;-70
2023/06/02 00:54:20;;;;;;;1.60;1.50;;;21.50;42.70;;;;;;4924169;28;20226;-70
2023/06/02 00:56:46;;;;;;;1.70;1.60;;;21.60;42.90;;;;;;4923326;28;20475;-70
2023/06/02 00:59:12;;;;;;;1.90;1.80;;;21.50;42.90;;;;;;4923061;28;20209;-70
2023/06/02 01:01:39;;;;;;;2.00;1.90;;;21.50;42.70;;;;;;4920046;28;20293;-70
2023/06/02 01:04:07;;;;;;;1.70;1.60;;;21.50;42.50;;;;;;4921686;28;20471;-70
2023/06/02 01:06:36;;;;;;;2.13;1.90;;;21.50;42.50;;;;;;4924309;28;21245;-70
2023/06/02 01:09:04;;;;;;;1.70;1.60;;;21.60;42.50;;;;;;4925846;28;20468;-70
2023/06/02 01:11:30;;;;;;;1.90;1.80;;;21.50;42.50;;;;;;4924755;28;20472;-70
2023/06/02 01:13:55;;;;;;;2.10;2.00;;;21.60;42.70;;;;;;4922498;28;20526;-70
2023/06/02 01:16:21;;;;;;;1.60;1.50;;;21.60;42.60;;;;;;4923622;28;20336;-70
2023/06/02 01:18:49;;;;;;;1.83;1.73;;;21.50;42.50;;;;;;4925710;28;20234;-70
2023/06/02 01:21:21;;;;;;;1.80;1.70;;;21.60;42.50;;;;;;4922095;28;20226;-70
2023/06/02 01:23:50;;;;;;;1.83;1.73;;;21.60;42.40;;;;;;4927730;28;21092;-70
2023/06/02 01:26:15;;;;;;;1.90;1.63;;;21.60;42.20;;;;;;4939360;28;20824;-70
2023/06/02 01:28:41;;;;;;;2.30;2.00;;;21.60;42.10;;;;;;5196682;23;20435;-87
2023/06/02 01:31:48;;;;;;;1.90;1.80;;;21.60;41.80;;;;;;4963375;23;20228;-86
2023/06/02 01:34:21;;;;;;;2.37;2.27;;;21.60;41.50;;;;;;4962213;28;20454;-83
2023/06/02 01:36:50;;;;;;;2.00;1.90;;;21.60;41.10;;;;;;4961696;28;20915;-83
2023/06/02 01:39:17;;;;;;;2.30;2.20;;;21.60;41.20;;;;;;4963751;28;20454;-85
2023/06/02 01:41:45;;;;;;;3.83;3.60;;;21.60;41.10;;;;;;4966588;28;20474;-85
2023/06/02 01:44:11;;;;;;;4.87;4.67;;;21.60;40.60;;;;;;4963172;28;21020;-86
2023/06/02 01:46:40;;;;;;;5.90;4.60;;;21.60;40.60;;;;;;4964158;28;20482;-83
2023/06/02 01:49:16;;;;;;;5.20;4.90;;;21.60;40.60;;;;;;4958356;28;20560;-85
2023/06/02 01:51:42;;;;;;;6.00;5.50;;;21.60;40.70;;;;;;4965104;28;20572;-83
2023/06/02 01:54:08;;;;;;;2.90;2.70;;;21.60;40.60;;;;;;4942473;28;21040;-84
2023/06/02 01:56:33;;;;;;;7.80;6.00;;;21.60;40.60;;;;;;4960339;28;20465;-82
2023/06/02 01:59:00;;;;;;;10.13;5.77;;;21.60;40.60;;;;;;4965199;28;20731;-86
2023/06/02 02:01:27;;;;;;;5.63;5.13;;;21.60;40.10;;;;;;4968148;28;20232;-83
2023/06/02 02:03:53;;;;;;;3.93;3.33;;;21.60;39.90;;;;;;4970039;28;20592;-84
2023/06/02 02:06:29;;;;;;;4.77;4.47;;;21.60;40.20;;;;;;4962597;28;20486;-83
2023/06/02 02:08:56;;;;;;;3.23;3.03;;;21.60;40.20;;;;;;4965582;28;20466;-85
2023/06/02 02:11:22;;;;;;;3.80;3.60;;;21.60;40.60;;;;;;4967816;28;20465;-81
2023/06/02 02:13:48;;;;;;;5.97;4.30;;;21.60;40.60;;;;;;4963091;28;20453;-86
2023/06/02 02:16:14;;;;;;;6.33;5.93;;;21.50;40.50;;;;;;4963181;28;20228;-83
2023/06/02 02:18:40;;;;;;;4.70;4.30;;;21.50;40.40;;;;;;4965831;28;20444;-83
2023/06/02 02:21:06;;;;;;;5.60;5.20;;;21.50;40.30;;;;;;4964807;28;20295;-83
2023/06/02 02:23:31;;;;;;;4.63;4.43;;;21.60;40.10;;;;;;4966282;28;20469;-87
2023/06/02 02:25:57;;;;;;;3.80;3.60;;;21.50;39.80;;;;;;4968376;28;20266;-86
2023/06/02 02:28:22;;;;;;;5.40;5.10;;;21.50;40.00;;;;;;4965985;28;21093;-84
2023/06/02 02:30:48;;;;;;;6.43;5.80;;;21.60;40.00;;;;;;4966670;28;20228;-83
2023/06/02 02:33:13;;;;;;;4.70;4.50;;;21.60;39.80;;;;;;4963884;28;20714;-82
2023/06/02 02:35:40;;;;;;;4.47;4.27;;;21.50;39.80;;;;;;4967448;28;20224;-86
2023/06/02 02:38:05;;;;;;;5.50;5.20;;;21.50;40.10;;;;;;4964327;28;20239;-84
2023/06/02 02:40:31;;;;;;;4.17;3.97;;;21.50;39.90;;;;;;4967389;28;20478;-83
2023/06/02 02:42:56;;;;;;;4.80;4.50;;;21.50;40.60;;;;;;4965628;28;22666;-87
2023/06/02 02:45:22;;;;;;;6.00;5.60;;;21.50;40.40;;;;;;4966467;28;20302;-83
2023/06/02 02:47:47;;;;;;;5.27;4.87;;;21.50;40.00;;;;;;4966387;28;20254;-84
2023/06/02 02:50:14;;;;;;;5.83;5.23;;;21.50;40.20;;;;;;4965224;28;20228;-86
2023/06/02 02:52:39;;;;;;;6.47;5.93;;;21.50;40.10;;;;;;4966713;28;20224;-83
2023/06/02 02:55:05;;;;;;;5.30;5.00;;;21.50;39.90;;;;;;4967690;28;21385;-84
2023/06/02 02:57:31;;;;;;;4.73;4.43;;;21.50;40.00;;;;;;4955993;28;20228;-85
2023/06/02 02:59:57;;;;;;;3.90;3.70;;;21.50;40.10;;;;;;4950920;28;20623;-85
2023/06/02 03:02:22;;;;;;;4.90;4.70;;;21.50;40.40;;;;;;4965986;28;20224;-83
2023/06/02 03:04:51;;;;;;;4.70;4.50;;;21.50;40.30;;;;;;4964666;28;20232;-83
2023/06/02 03:07:17;;;;;;;4.80;4.40;;;21.50;40.30;;;;;;4962770;28;20239;-84
2023/06/02 03:09:43;;;;;;;4.20;4.00;;;21.50;39.90;;;;;;4965596;28;20453;-83
2023/06/02 03:12:09;;;;;;;4.30;4.10;;;21.50;39.70;;;;;;4964164;28;20475;-83
2023/06/02 03:14:34;;;;;;;3.83;3.53;;;21.50;39.80;;;;;;4963057;28;20228;-83
2023/06/02 03:17:00;;;;;;;3.93;3.63;;;21.50;39.70;;;;;;4962063;28;20220;-86
2023/06/02 03:19:26;;;;;;;3.70;3.50;;;21.50;39.70;;;;;;4966062;28;20235;-83
2023/06/02 03:21:53;;;;;;;3.70;3.50;;;21.50;40.00;;;;;;4963754;28;20680;-83
2023/06/02 03:24:19;;;;;;;4.13;3.90;;;21.50;40.20;;;;;;4966104;28;20234;-83
2023/06/02 03:26:45;;;;;;;4.00;3.80;;;21.50;40.50;;;;;;4978554;28;20815;-84
2023/06/02 03:29:12;;;;;;;4.17;3.97;;;21.50;40.50;;;;;;4966791;28;20466;-83
2023/06/02 03:31:38;;;;;;;4.07;3.87;;;21.50;40.50;;;;;;4966584;28;20216;-83
2023/06/02 03:34:04;;;;;;;4.27;4.07;;;21.50;40.50;;;;;;4967045;28;20466;-83
2023/06/02 03:36:35;;;;;;;4.20;4.00;;;21.50;40.80;;;;;;4965828;28;20865;-86
2023/06/02 03:39:04;;;;;;;4.00;3.80;;;21.50;41.20;;;;;;4965794;28;20690;-84
2023/06/02 03:41:30;;;;;;;3.70;3.50;;;21.50;41.30;;;;;;4973081;28;20461;-83
2023/06/02 03:43:56;;;;;;;4.10;3.90;;;21.50;41.50;;;;;;4966387;28;20508;-82
2023/06/02 03:46:21;;;;;;;4.70;4.40;;;21.50;42.40;;;;;;4966809;28;21082;-83
2023/06/02 03:48:47;;;;;;;4.07;3.87;;;21.50;41.70;;;;;;4966950;28;20224;-84
2023/06/02 03:51:12;;;;;;;4.03;3.83;;;21.50;41.80;;;;;;4964159;28;20287;-83
2023/06/02 03:53:38;;;;;;;4.07;3.87;;;21.40;41.90;;;;;;4964383;28;20753;-88
2023/06/02 03:56:03;;;;;;;3.93;3.73;;;21.40;41.90;;;;;;4978921;28;20334;-85
2023/06/02 03:58:29;;;;;;;4.17;3.97;;;21.40;42.80;;;;;;4966343;28;20239;-83
2023/06/02 04:00:55;;;;;;;4.47;4.20;;;21.40;42.10;;;;;;4960112;28;20287;-86
2023/06/02 04:03:21;;;;;;;4.20;3.90;;;21.40;42.30;;;;;;4961804;28;20228;-85
2023/06/02 04:05:47;;;;;;;3.60;3.40;;;21.40;42.20;;;;;;4958703;28;20240;-87
2023/06/02 04:08:14;;;;;;;4.47;4.27;;;21.40;42.30;;;;;;4960045;28;21373;-86
2023/06/02 04:10:40;;;;;;;4.37;3.90;;;21.40;42.30;;;;;;4964467;28;20252;-85
2023/06/02 04:13:06;;;;;;;4.20;3.93;;;21.40;42.30;;;;;;4963533;28;20462;-88
2023/06/02 04:15:31;;;;;;;4.23;4.03;;;21.50;42.40;;;;;;4956632;28;20497;-88
2023/06/02 04:17:57;;;;;;;4.60;4.30;;;21.50;42.30;;;;;;4964878;28;20880;-85
2023/06/02 04:20:23;;;;;;;4.00;3.80;;;21.50;42.40;;;;;;4967790;28;20232;-85
2023/06/02 04:22:48;;;;;;;4.90;4.30;;;21.50;42.30;;;;;;4956503;28;20726;-84
2023/06/02 04:25:14;;;;;;;4.43;4.03;;;21.50;42.30;;;;;;4960691;28;20255;-84
2023/06/02 04:27:39;;;;;;;4.10;3.80;;;21.50;42.30;;;;;;4953880;28;20751;-85
2023/06/02 04:30:06;;;;;;;4.07;3.77;;;21.50;42.30;;;;;;4961947;28;20673;-84
2023/06/02 04:32:32;;;;;;;4.77;4.57;;;21.50;42.30;;;;;;4955597;28;20362;-83
2023/06/02 04:34:58;;;;;;;4.03;3.83;;;21.50;42.30;;;;;;4958897;28;20527;-86
2023/06/02 04:37:23;;;;;;;5.63;4.30;;;21.50;42.30;;;;;;4962352;28;21085;-87
2023/06/02 04:39:50;;;;;;;4.40;4.20;;;21.50;42.50;;;;;;4954916;28;21590;-85
2023/06/02 04:42:16;;;;;;;3.97;3.77;;;21.50;42.30;;;;;;4962514;28;20259;-85
2023/06/02 04:44:44;;;;;;;3.93;3.73;;;21.50;42.30;;;;;;4963470;28;20465;-85
2023/06/02 04:47:10;;;;;;;4.27;4.07;;;21.50;42.30;;;;;;4959848;28;20483;-90
2023/06/02 04:49:36;;;;;;;4.40;4.10;;;21.50;42.30;;;;;;4975194;28;20472;-89
2023/06/02 04:52:08;;;;;;;4.70;4.40;;;21.50;42.40;;;;;;4963655;28;21000;-90
2023/06/02 04:54:34;;;;;;;4.93;4.63;;;21.50;42.30;;;;;;4967009;28;20462;-86
2023/06/02 04:57:00;;;;;;;4.20;4.00;;;21.60;42.40;;;;;;4954204;28;21732;-87
2023/06/02 04:59:27;;;;;;;3.80;3.60;;;21.50;42.30;;;;;;4954242;28;20485;-83
2023/06/02 05:01:52;;;;;;;4.67;3.97;;;21.50;42.30;;;;;;4963461;28;21012;-84
2023/06/02 05:04:19;;;;;;;5.40;4.43;;;21.50;42.30;;;;;;4962587;28;21417;-84
2023/06/02 05:06:45;;;;;;;5.03;4.10;;;21.50;42.30;;;;;;4965054;28;20236;-86
2023/06/02 05:09:11;;;;;;;4.53;4.30;;;21.50;42.30;;;;;;4970157;28;20489;-84
2023/06/02 05:11:37;;;;;;;3.77;3.57;;;21.50;42.30;;;;;;4970674;28;20462;-83
2023/06/02 05:14:02;;;;;;;4.90;4.60;;;21.50;42.30;;;;;;4972808;28;20869;-83
2023/06/02 05:16:29;;;;;;;3.73;3.53;;;21.50;42.30;;;;;;4971007;28;20234;-83
2023/06/02 05:18:55;;;;;;;4.30;4.10;;;21.50;42.30;;;;;;4972129;28;20232;-85
2023/06/02 05:21:21;;;;;;;4.00;3.80;;;21.50;42.30;;;;;;4972153;28;20447;-83
2023/06/02 05:23:46;;;;;;;4.03;3.83;;;21.50;42.30;;;;;;4971248;28;20215;-88
2023/06/02 05:26:12;;;;;;;3.70;3.50;;;21.50;42.30;;;;;;4963172;28;20692;-86
2023/06/02 05:28:37;;;;;;;3.97;3.70;;;21.50;42.40;;;;;;4969971;28;20302;-86
2023/06/02 05:31:03;;;;;;;4.13;3.93;;;21.50;42.30;;;;;;4969206;28;20236;-85
2023/06/02 05:33:29;;;;;;;4.40;4.20;;;21.50;42.40;;;;;;4967167;28;20220;-85
2023/06/02 05:35:54;;;;;;;4.67;4.27;;;21.50;42.40;;;;;;4971450;28;20316;-85
2023/06/02 05:38:20;;;;;;;4.50;4.20;;;21.50;42.40;;;;;;4972711;28;20324;-84
2023/06/02 05:40:46;;;;;;;4.00;3.80;;;21.50;42.40;;;;;;4972798;28;20231;-84
2023/06/02 05:43:11;;;;;;;4.47;4.17;;;21.50;42.40;;;;;;4974798;28;20239;-84
2023/06/02 05:45:37;;;;;;;4.60;4.20;;;21.50;42.50;;;;;;4970839;28;20271;-84
2023/06/02 05:48:02;;;;;;;4.10;3.90;;;21.50;42.50;;;;;;4971474;28;20232;-84
2023/06/02 05:50:28;;;;;;;4.50;4.10;;;21.50;42.40;;;;;;4974685;28;20941;-84
2023/06/02 05:52:53;;;;;;;5.50;4.00;;;21.50;42.40;;;;;;4972349;28;20216;-85
2023/06/02 05:55:19;;;;;;;4.43;3.23;;;21.50;42.40;;;;;;4968125;28;20233;-84
2023/06/02 05:57:45;;;;;;;4.60;4.30;;;21.50;42.40;;;;;;4961609;28;20336;-85
2023/06/02 06:00:11;;;;;;;4.07;3.87;;;21.50;42.50;;;;;;4966021;28;20595;-84
2023/06/02 06:02:37;;;;;;;4.63;4.33;;;21.50;42.50;;;;;;4969657;28;20220;-84
2023/06/02 06:05:02;;;;;;;5.03;4.70;;;21.50;42.40;;;;;;4970322;28;20485;-85
2023/06/02 06:07:28;;;;;;;4.50;4.20;;;21.50;42.40;;;;;;4971176;28;20251;-84
2023/06/02 06:09:53;;;;;;;4.30;4.00;;;21.50;42.50;;;;;;4972993;28;20228;-85
2023/06/02 06:12:19;;;;;;;4.47;4.27;;;21.50;42.50;;;;;;4973667;28;20228;-85
2023/06/02 06:14:44;;;;;;;4.70;4.40;;;21.50;42.50;;;;;;4973066;28;20224;-84
2023/06/02 06:17:10;;;;;;;5.07;4.67;;;21.50;42.50;;;;;;4970196;28;20220;-84
2023/06/02 06:19:35;;;;;;;4.60;4.30;;;21.50;42.50;;;;;;4972161;28;20955;-84
2023/06/02 06:22:02;;;;;;;4.27;3.97;;;21.50;42.50;;;;;;4970772;28;20657;-84
2023/06/02 06:24:27;;;;;;;4.27;4.07;;;21.50;43.30;;;;;;4983519;28;20934;-85
2023/06/02 06:26:53;;;;;;;4.70;4.50;;;21.50;42.50;;;;;;4973371;28;20468;-84
2023/06/02 06:29:18;;;;;;;4.60;4.40;;;21.50;42.50;;;;;;4970527;28;20220;-84
2023/06/02 06:31:44;;;;;;;4.77;4.47;;;21.50;42.50;;;;;;4969472;28;20220;-84
2023/06/02 06:34:10;;;;;;;5.90;5.50;;;21.50;42.50;;;;;;4970013;28;20255;-84
2023/06/02 06:36:36;;;;;;;4.60;4.40;;;21.50;42.60;;;;;;4973263;28;20224;-84
2023/06/02 06:39:02;;;;;;;4.70;4.50;;;21.50;42.50;;;;;;4964428;28;20558;-83
2023/06/02 06:41:28;;;;;;;5.33;5.00;;;21.50;42.50;;;;;;4967723;28;21127;-84
2023/06/02 06:43:53;;;;;;;4.70;4.40;;;21.50;42.50;;;;;;4964192;28;20470;-84
2023/06/02 06:46:19;;;;;;;4.57;4.37;;;21.50;42.50;;;;;;4972066;28;20235;-84
2023/06/02 06:48:45;;;;;;;4.90;4.70;;;21.50;42.60;;;;;;4969857;28;20742;-83
2023/06/02 06:51:10;;;;;;;4.77;4.53;;;21.50;42.50;;;;;;4963191;28;20952;-84
2023/06/02 06:53:36;;;;;;;5.40;5.10;;;21.50;42.50;;;;;;4959226;28;21995;-83
2023/06/02 06:56:02;;;;;;;4.70;4.50;;;21.50;42.50;;;;;;4972549;28;20232;-83
2023/06/02 06:58:28;;;;;;;5.10;4.80;;;21.50;42.60;;;;;;4973107;28;20227;-83
2023/06/02 07:00:54;;;;;;;5.13;4.83;;;21.50;42.50;;;;;;4967101;28;20465;-84
2023/06/02 07:03:20;;;;;;;4.90;4.60;;;21.50;42.60;;;;;;4975018;28;20954;-84
2023/06/02 07:05:46;;;;;;;5.20;4.90;;;21.50;42.60;;;;;;4966849;28;20286;-83
2023/06/02 07:08:12;;;;;;;5.30;5.00;;;21.50;42.50;;;;;;4972620;28;20301;-85
2023/06/02 07:10:38;;;;;;;5.13;4.73;;;21.50;42.50;;;;;;4971552;28;20694;-83
2023/06/02 07:13:04;;;;;;;5.07;4.77;;;21.50;42.60;;;;;;4970500;28;20216;-83
2023/06/02 07:15:29;;;;;;;5.00;4.70;;;21.50;42.50;;;;;;4973988;28;20549;-84
2023/06/02 07:17:55;;;;;;;5.73;5.43;;;21.50;42.60;;;;;;4967302;28;20597;-84
2023/06/02 07:20:21;;;;;;;5.87;5.20;;;21.50;42.50;;;;;;4972081;28;20225;-84
2023/06/02 07:22:46;;;;;;;4.93;4.70;;;21.50;42.50;;;;;;4971965;28;20235;-84
2023/06/02 07:25:12;;;;;;;4.97;4.67;;;21.50;42.50;;;;;;4969252;28;20286;-84
2023/06/02 07:27:37;;;;;;;5.00;4.70;;;21.50;42.60;;;;;;4967545;28;20316;-83
2023/06/02 07:30:04;;;;;;;4.77;4.50;;;21.50;42.50;;;;;;4971326;28;20243;-83
2023/06/02 07:32:29;;;;;;;5.30;5.00;;;21.50;42.60;;;;;;4969520;28;20315;-83
2023/06/02 07:34:55;;;;;;;5.30;5.10;;;21.50;42.50;;;;;;4969411;28;20480;-84
2023/06/02 07:37:20;;;;;;;5.50;5.20;;;21.50;42.50;;;;;;4970738;28;20246;-83
2023/06/02 07:39:46;;;;;;;5.90;5.50;;;21.50;42.60;;;;;;4972574;28;20779;-84
2023/06/02 07:42:12;;;;;;;5.30;5.00;;;21.50;42.60;;;;;;4973795;28;20219;-84
2023/06/02 07:44:37;;;;;;;5.53;5.13;;;21.50;42.50;;;;;;4972532;28;20634;-84
2023/06/02 07:47:04;;;;;;;6.17;5.80;;;21.50;42.60;;;;;;4971264;28;20290;-83
2023/06/02 07:49:29;;;;;;;5.87;5.37;;;21.50;42.60;;;;;;4967194;28;20231;-84
2023/06/02 07:51:55;;;;;;;5.57;5.17;;;21.50;42.60;;;;;;4971817;28;20827;-84
2023/06/02 07:54:20;;;;;;;5.10;4.80;;;21.50;42.60;;;;;;4972377;28;20223;-84
2023/06/02 07:56:46;;;;;;;5.07;4.77;;;21.50;42.60;;;;;;4971024;28;20293;-84
2023/06/02 07:59:12;;;;;;;5.60;5.30;;;21.50;42.60;;;;;;4969414;28;20267;-83
2023/06/02 08:01:38;;;;;;;5.60;5.10;;;21.50;43.40;;;;;;4971098;28;20458;-83
2023/06/02 08:04:04;;;;;;;5.17;4.93;;;21.50;42.60;;;;;;4972063;28;20228;-84
2023/06/02 08:06:30;;;;;;;5.40;5.00;;;21.50;42.60;;;;;;4969269;28;21028;-84
2023/06/02 08:08:55;;;;;;;5.80;5.40;;;21.50;42.60;;;;;;4968505;28;20235;-84
2023/06/02 08:11:22;;;;;;;5.67;5.20;;;21.50;42.60;;;;;;4971575;28;20236;-83
2023/06/02 08:13:48;;;;;;;5.50;5.20;;;21.50;42.60;;;;;;4972436;28;20304;-84
2023/06/02 08:16:14;;;;;;;5.93;5.53;;;21.50;42.60;;;;;;4973999;28;20457;-83
2023/06/02 08:18:39;;;;;;;6.17;5.67;;;21.50;42.60;;;;;;4966132;28;20234;-83
2023/06/02 08:21:05;;;;;;;5.47;5.17;;;21.50;42.70;;;;;;4963395;28;20606;-83
2023/06/02 08:23:32;;;;;;;5.40;5.13;;;21.50;42.60;;;;;;4976051;28;20243;-84
2023/06/02 08:25:58;;;;;;;5.57;5.27;;;21.50;42.60;;;;;;4973468;28;20239;-83
2023/06/02 08:28:25;;;;;;;5.30;5.00;;;21.50;42.70;;;;;;4974962;28;20440;-85
2023/06/02 08:30:51;;;;;;;5.60;5.27;;;21.50;42.70;;;;;;4973677;28;20476;-83
2023/06/02 08:33:18;;;;;;;6.33;5.90;;;21.50;42.70;;;;;;4972290;28;20581;-83
2023/06/02 08:35:46;;;;;;;6.03;5.73;;;21.50;42.70;;;;;;4971509;28;20457;-84
2023/06/02 08:38:16;;;;;;;5.90;5.50;;;21.50;43.50;;;;;;4972168;28;20508;-84
2023/06/02 08:40:45;;;;;;;5.50;5.20;;;21.50;42.70;;;;;;4974953;28;20465;-85
2023/06/02 08:43:13;;;;;;;6.63;6.07;;;21.50;42.70;;;;;;4962687;28;20469;-87
2023/06/02 08:45:39;;;;;;;4.93;4.63;;;21.50;43.50;;;;;;4970095;28;20568;-84
2023/06/02 08:48:06;;;;;;;5.87;5.57;;;21.50;42.70;;;;;;4973260;28;20616;-83
2023/06/02 08:50:38;;;;;;;6.20;5.80;;;21.50;42.70;;;;;;4972574;28;20500;-83
2023/06/02 08:53:06;;;;;;;5.67;5.37;;;21.50;42.70;;;;;;4970684;28;20804;-84
2023/06/02 08:55:34;;;;;;;6.30;5.97;;;21.50;42.70;;;;;;4973226;28;20461;-83
2023/06/02 08:58:00;;;;;;;6.20;5.60;;;21.50;42.70;;;;;;4974043;28;20488;-83
2023/06/02 09:00:26;;;;;;;5.57;5.27;;;21.50;42.70;;;;;;4973200;28;20446;-85
2023/06/02 09:02:52;;;;;;;5.83;5.53;;;21.50;42.70;;;;;;4972515;28;20588;-84
2023/06/02 09:05:19;;;;;;;5.50;5.20;;;21.50;42.70;;;;;;4974137;28;20453;-84
2023/06/02 09:07:48;;;;;;;5.80;5.50;;;21.50;42.70;;;;;;4974506;28;20544;-84
2023/06/02 09:10:45;;;;;;;6.27;5.77;;;21.50;42.70;;;;;;4972788;28;23621;-83
2023/06/02 09:13:30;;;;;;;4.97;4.77;;;21.50;42.80;;;;;;4971324;28;20697;-83
2023/06/02 09:15:56;;;;;;;6.20;5.80;;;21.50;42.80;;;;;;4971052;28;21747;-83
2023/06/02 09:18:22;;;;;;;5.70;5.30;;;21.50;42.80;;;;;;4972522;28;20486;-83
2023/06/02 09:20:48;;;;;;;5.77;5.47;;;21.50;42.70;;;;;;4972323;28;20930;-84
2023/06/02 09:23:14;;;;;;;5.83;5.53;;;21.50;42.80;;;;;;4972369;28;24546;-83
2023/06/02 09:25:40;;;;;;;5.00;4.70;;;21.50;42.80;;;;;;4973007;28;21893;-84
2023/06/02 09:28:07;;;;;;;6.13;5.83;;;21.50;42.70;;;;;;4974080;28;20505;-83
2023/06/02 09:30:33;;;;;;;5.00;4.80;;;21.50;42.70;;;;;;4971775;28;20473;-84
2023/06/02 09:33:07;;;;;;;6.07;5.67;;;21.50;42.70;;;;;;4971814;28;20465;-83
2023/06/02 09:35:36;;;;;;;5.73;5.43;;;21.50;42.80;;;;;;4980432;28;20231;-84
2023/06/02 09:38:05;;;;;;;6.27;5.87;;;21.50;42.70;;;;;;4977034;28;20555;-83
2023/06/02 09:40:34;;;;;;;5.80;5.50;;;21.50;42.70;;;;;;4978051;28;20458;-84
2023/06/02 09:43:05;;;;;;;5.50;5.20;;;21.50;42.70;;;;;;4976166;28;21281;-83
2023/06/02 09:45:54;;;;;;;5.87;5.57;;;21.50;42.70;;;;;;4975698;28;20470;-83
2023/06/02 09:48:23;;;;;;;5.47;5.07;;;21.50;42.70;;;;;;4966676;28;20454;-83
2023/06/02 09:50:49;;;;;;;5.60;5.30;;;21.50;42.80;;;;;;4979346;28;20532;-83
2023/06/02 09:53:17;;;;;;;5.07;4.80;;;21.50;42.80;;;;;;4992377;28;20536;-83
2023/06/02 09:55:44;;;;;;;5.17;4.87;;;21.50;42.70;;;;;;4967085;28;20477;-83
2023/06/02 09:58:10;;;;;;;5.93;5.63;;;21.50;42.80;;;;;;4975369;28;20579;-83
2023/06/02 10:00:35;;;;;;;5.17;4.77;;;21.50;42.70;;;;;;4971077;28;20469;-83
2023/06/02 10:03:02;;;;;;;6.13;5.83;;;21.50;42.70;;;;;;4978171;28;20259;-83
2023/06/02 10:05:28;;;;;;;5.50;5.20;;;21.50;42.80;;;;;;4975341;28;20593;-83
2023/06/02 10:08:15;;;;;;;5.40;5.10;;;21.50;42.70;;;;;;4979040;28;20604;-84
2023/06/02 10:11:18;;;;;;;5.40;5.10;;;21.50;42.70;;;;;;4977318;28;20618;-83
2023/06/02 10:13:52;;;;;;;5.90;5.60;;;21.50;42.80;;;;;;4976457;28;20480;-83
2023/06/02 10:16:26;;;;;;;5.40;5.10;;;21.50;42.70;;;;;;4978073;28;20465;-83
2023/06/02 10:19:16;;;;;;;6.00;5.60;;;21.50;42.70;;;;;;4975871;28;20488;-84
2023/06/02 10:22:11;;;;;;;5.70;5.37;;;21.50;42.70;;;;;;4975071;28;20477;-83
2023/06/02 10:24:45;;;;;;;5.40;5.10;;;21.50;42.70;;;;;;4976994;28;20993;-84
2023/06/02 10:27:37;;;;;;;4.80;4.60;;;21.50;42.80;;;;;;4977942;28;20479;-83
2023/06/02 10:30:03;;;;;;;5.60;5.20;;;21.50;42.80;;;;;;4975769;28;20459;-83
2023/06/02 10:32:40;;;;;;;5.27;4.97;;;21.50;42.80;;;;;;4976620;28;20449;-85
2023/06/02 10:35:07;;;;;;;9.40;6.57;;;21.50;42.80;;;;;;4976265;28;20223;-85
2023/06/02 10:37:34;;;;;;;5.07;4.87;;;21.50;42.80;;;;;;4974498;28;20470;-83
2023/06/02 10:39:59;;;;;;;5.60;5.30;;;21.50;42.80;;;;;;4975132;28;20481;-83
2023/06/02 10:42:30;;;;;;;6.13;5.63;;;21.50;42.80;;;;;;4977330;28;20473;-83
2023/06/02 10:45:17;;;;;;;5.80;5.50;;;21.50;42.80;;;;;;4968875;28;20295;-84
2023/06/02 10:47:43;;;;;;;6.37;5.97;;;21.50;42.70;;;;;;4975363;28;20469;-84
2023/06/02 10:50:10;;;;;;;5.07;4.67;;;21.50;42.80;;;;;;4966312;28;20462;-83
2023/06/02 10:53:00;;;;;;;5.33;5.10;;;21.50;42.80;;;;;;4974629;28;20504;-84
2023/06/02 10:55:30;;;;;;;5.57;5.27;;;21.50;42.80;;;;;;4975946;28;20554;-84
2023/06/02 10:57:57;;;;;;;5.40;5.10;;;21.50;42.80;;;;;;4978114;28;20486;-84
2023/06/02 11:00:43;;;;;;;5.63;5.33;;;21.50;42.80;;;;;;4974766;28;20476;-83
2023/06/02 11:03:17;;;;;;;5.10;4.80;;;21.50;42.80;;;;;;4975085;28;20469;-83
2023/06/02 11:05:49;;;;;;;5.53;5.20;;;21.50;42.80;;;;;;4975145;28;20473;-83
2023/06/02 11:08:15;;;;;;;5.40;5.10;;;21.50;42.80;;;;;;4972156;28;21056;-83
2023/06/02 11:10:45;;;;;;;5.07;4.87;;;21.50;42.80;;;;;;4975553;28;21043;-83
2023/06/02 11:13:12;;;;;;;5.90;5.50;;;21.50;42.80;;;;;;4986021;28;21388;-84
2023/06/02 11:15:38;;;;;;;5.17;4.87;;;21.50;42.70;;;;;;4976304;28;20548;-85
2023/06/02 11:18:22;;;;;;;5.37;5.07;;;21.50;42.80;;;;;;4975193;28;20474;-83
2023/06/02 11:20:50;;;;;;;5.00;4.80;;;21.50;42.70;;;;;;4974401;28;20690;-84
2023/06/02 11:23:17;;;;;;;5.00;4.80;;;21.50;42.80;;;;;;4973397;28;20894;-83
2023/06/02 11:25:47;;;;;;;5.07;4.87;;;21.50;42.70;;;;;;4976867;28;20460;-84
2023/06/02 11:28:17;;;;;;;5.00;4.70;;;21.50;42.80;;;;;;4975632;28;20469;-84
2023/06/02 11:30:42;;;;;;;4.87;4.67;;;21.50;42.70;;;;;;4970961;28;20956;-84
2023/06/02 11:33:08;;;;;;;4.80;4.50;;;21.50;42.80;;;;;;4973691;28;20868;-83
2023/06/02 11:35:35;;;;;;;5.63;5.33;;;21.50;42.80;;;;;;4976025;28;20227;-84
2023/06/02 11:38:08;;;;;;;4.60;4.30;;;21.50;42.70;;;;;;4974986;28;20224;-84
2023/06/02 11:40:35;;;;;;;5.53;5.23;;;21.50;42.70;;;;;;4974413;28;20544;-84
2023/06/02 11:43:02;;;;;;;4.60;4.40;;;21.50;42.80;;;;;;4973000;28;20462;-84
2023/06/02 11:45:28;;;;;;;4.90;4.60;;;21.50;42.80;;;;;;4975807;28;20475;-84
2023/06/02 11:48:01;;;;;;;5.20;4.90;;;21.50;42.80;;;;;;4974311;28;20527;-83
2023/06/02 11:50:27;;;;;;;5.27;4.97;;;21.60;42.90;;;;;;4974125;28;20463;-83
2023/06/02 11:52:53;;;;;;;4.73;4.53;;;21.60;42.90;;;;;;4964770;28;20784;-83
2023/06/02 11:55:19;;;;;;;4.93;4.63;;;21.60;42.90;;;;;;4974077;28;20450;-83
2023/06/02 11:57:45;;;;;;;4.67;4.37;;;21.50;42.80;;;;;;4974825;28;20457;-83
2023/06/02 12:00:15;;;;;;;5.20;5.00;;;21.60;42.80;;;;;;4975800;28;21464;-83
2023/06/02 12:02:51;;;;;;;5.10;4.80;;;21.50;42.80;;;;;;4974081;28;20311;-84
2023/06/02 12:05:34;;;;;;;4.30;4.10;;;21.60;42.90;;;;;;4967115;28;22415;-84
2023/06/02 12:08:14;;;;;;;4.83;4.53;;;21.60;42.90;;;;;;4973466;28;20536;-85
2023/06/02 12:10:41;;;;;;;4.47;4.27;;;21.60;42.90;;;;;;4987811;28;20992;-85
2023/06/02 12:13:06;;;;;;;4.60;4.40;;;21.60;42.90;;;;;;4972967;28;20461;-83
2023/06/02 12:15:36;;;;;;;4.87;4.67;;;21.60;42.90;;;;;;4970168;28;21340;-84
2023/06/02 12:18:04;;;;;;;4.40;4.20;;;21.60;42.90;;;;;;4969659;28;20239;-85
2023/06/02 12:20:42;;;;;;;4.57;4.27;;;21.60;42.90;;;;;;4972407;28;20492;-85
2023/06/02 12:23:11;;;;;;;4.57;4.30;;;21.60;42.90;;;;;;4972207;28;20473;-84
2023/06/02 12:25:38;;;;;;;4.40;4.20;;;21.60;42.90;;;;;;4971828;28;20501;-85
2023/06/02 12:28:10;;;;;;;5.17;4.87;;;21.60;42.90;;;;;;4964497;28;20462;-84
2023/06/02 12:30:35;;;;;;;4.20;4.00;;;21.60;43.00;;;;;;4971414;28;20829;-83
2023/06/02 12:33:09;;;;;;;3.90;3.70;;;21.60;42.90;;;;;;4970861;28;20493;-85
2023/06/02 12:35:35;;;;;;;3.83;3.63;;;21.60;43.00;;;;;;4969681;28;20331;-84
2023/06/02 12:38:03;;;;;;;5.00;4.70;;;21.60;42.90;;;;;;4966874;28;20461;-83
2023/06/02 12:40:28;;;;;;;3.97;3.77;;;21.60;42.90;;;;;;4970437;28;20670;-84
2023/06/02 12:42:54;;;;;;;4.70;4.40;;;21.60;42.90;;;;;;4975429;28;20477;-83
2023/06/02 12:45:20;;;;;;;3.87;3.67;;;21.60;42.90;;;;;;4975641;28;20231;-84
2023/06/02 12:47:45;;;;;;;4.70;4.40;;;21.60;42.90;;;;;;4973902;28;20688;-83
2023/06/02 12:50:11;;;;;;;4.03;3.83;;;21.60;42.90;;;;;;4975433;28;20564;-83